Time;durP1;ratioP1;P1;durP2;ratioP2;P2;SDS_P1;SDS_P2;PMS_P1;PMS_P2;Temp;Humidity;BMP_temperature;BMP_pressure;BME280_temperature;BME280_humidity;BME280_pressure;Samples;Min_cycle;Max_cycle;Signal;HPM_P1;HPM_P2
2022/12/31 00:00:18;;;;;;;;;;;9.20;99.90;;;;;;5006525;28;20367;-76
2022/12/31 00:02:44;;;;;;;;;;;9.20;99.90;;;;;;5009226;28;19924;-75
2022/12/31 00:05:10;;;;;;;;;;;9.20;99.90;;;;;;5012767;28;19909;-74
2022/12/31 00:07:35;;;;;;;;;;;9.20;99.90;;;;;;5010427;28;19916;-73
2022/12/31 00:10:02;;;;;;;;;;;9.20;99.90;;;;;;5007702;28;20403;-76
2022/12/31 00:12:28;;;;;;;;;;;9.30;99.90;;;;;;5017378;28;20621;-76
2022/12/31 00:14:53;;;;;;;;;;;9.30;99.90;;;;;;5007751;28;20023;-75
2022/12/31 00:17:19;;;;;;;;;;;9.30;99.90;;;;;;5007193;28;20494;-75
2022/12/31 00:19:44;;;;;;;;;;;9.30;99.90;;;;;;5012522;28;19913;-75
2022/12/31 00:22:12;;;;;;;;;;;9.40;99.90;;;;;;5014683;28;19909;-81
2022/12/31 00:24:38;;;;;;;;;;;9.40;99.90;;;;;;5023676;28;20086;-84
2022/12/31 00:27:03;;;;;;;;;;;9.40;99.90;;;;;;5026103;28;19959;-84
2022/12/31 00:29:29;;;;;;;;;;;9.40;99.90;;;;;;5015864;28;19921;-79
2022/12/31 00:31:54;;;;;;;;;;;9.40;99.90;;;;;;5017959;28;20375;-79
2022/12/31 00:34:20;;;;;;;;;;;9.50;99.90;;;;;;5022270;28;19920;-80
2022/12/31 00:36:45;;;;;;;;;;;9.40;99.90;;;;;;5012459;28;19945;-80
2022/12/31 00:39:11;;;;;;;;;;;9.40;99.90;;;;;;5019060;28;19916;-85
2022/12/31 00:41:36;;;;;;;;;;;9.40;99.90;;;;;;5024803;28;19920;-77
2022/12/31 00:44:02;;;;;;;;;;;9.40;99.90;;;;;;5020205;28;19920;-71
2022/12/31 00:46:27;;;;;;;;;;;9.40;99.90;;;;;;5010511;28;19917;-72
2022/12/31 00:48:53;;;;;;;;;;;9.30;99.90;;;;;;5009336;28;20388;-72
2022/12/31 00:51:20;;;;;;;;;;;9.30;99.90;;;;;;5010148;28;20372;-72
2022/12/31 00:53:46;;;;;;;;;;;9.30;99.90;;;;;;5010010;28;19917;-73
2022/12/31 00:56:13;;;;;;;;;;;9.30;99.90;;;;;;5010442;28;19925;-72
2022/12/31 00:58:39;;;;;;;;;;;9.40;99.90;;;;;;5010753;28;19967;-81
2022/12/31 01:01:11;;;;;;;;;;;9.60;99.90;;;;;;5020942;28;19916;-79
2022/12/31 01:03:37;;;;;;;;;;;9.50;99.90;;;;;;5010611;28;19917;-76
2022/12/31 01:06:02;;;;;;;;;;;9.50;99.90;;;;;;5013850;28;20651;-80
2022/12/31 01:08:28;;;;;;;;;;;9.50;99.90;;;;;;5015974;28;19929;-78
2022/12/31 01:13:37;;;;;;;;;;;9.60;99.90;;;;;;5009740;28;20354;-75
2022/12/31 01:16:10;;;;;;;;;;;9.60;99.90;;;;;;5017260;28;19913;-75
2022/12/31 01:18:35;;;;;;;;;;;9.60;99.90;;;;;;5010933;28;19913;-76
2022/12/31 01:21:02;;;;;;;;;;;9.60;99.90;;;;;;5011185;28;19920;-73
2022/12/31 01:23:28;;;;;;;;;;;9.60;99.90;;;;;;5018274;28;19913;-76
2022/12/31 01:25:53;;;;;;;;;;;9.70;99.90;;;;;;5016081;28;19943;-76
2022/12/31 01:28:19;;;;;;;;;;;9.70;99.90;;;;;;5012303;28;19958;-76
2022/12/31 01:30:44;;;;;;;;;;;9.80;99.90;;;;;;5009557;28;19917;-73
2022/12/31 01:33:09;;;;;;;;;;;9.90;99.90;;;;;;5013633;28;19913;-74
2022/12/31 01:35:35;;;;;;;;;;;9.90;99.90;;;;;;5007334;28;20044;-73
2022/12/31 01:38:01;;;;;;;;;;;9.90;99.90;;;;;;5015134;28;19913;-73
2022/12/31 01:40:27;;;;;;;;;;;10.00;99.90;;;;;;5013570;28;20099;-66
2022/12/31 01:42:54;;;;;;;;;;;10.00;99.90;;;;;;5009130;28;20380;-67
2022/12/31 01:45:19;;;;;;;;;;;10.00;99.90;;;;;;5009974;28;19945;-66
2022/12/31 01:47:46;;;;;;;;;;;10.10;99.90;;;;;;5009863;28;19970;-66
2022/12/31 01:50:17;;;;;;;;;;;10.10;99.90;;;;;;5009854;28;19917;-62
2022/12/31 01:52:45;;;;;;;;;;;10.20;99.90;;;;;;5011910;28;19924;-60
2022/12/31 01:55:26;;;;;;;;;;;10.20;99.90;;;;;;5013737;28;19924;-63
2022/12/31 01:57:56;;;;;;;;;;;10.20;99.90;;;;;;5007266;28;19917;-63
2022/12/31 02:00:21;;;;;;;;;;;10.30;99.90;;;;;;5009720;28;19909;-62
2022/12/31 02:02:47;;;;;;;;;;;10.30;99.90;;;;;;5014406;28;19920;-62
2022/12/31 02:05:22;;;;;;;;;;;10.30;99.90;;;;;;5011476;28;19920;-62
2022/12/31 02:07:48;;;;;;;;;;;10.30;99.90;;;;;;5007090;28;19913;-62
2022/12/31 02:10:13;;;;;;;;;;;10.40;99.90;;;;;;5011026;28;20283;-62
2022/12/31 02:12:39;;;;;;;;;;;10.40;99.90;;;;;;5011876;28;19944;-62
2022/12/31 02:15:04;;;;;;;;;;;10.40;99.90;;;;;;5008432;28;19913;-62
2022/12/31 02:17:30;;;;;;;;;;;10.50;99.90;;;;;;5007588;28;19952;-63
2022/12/31 02:19:58;;;;;;;;;;;10.50;99.90;;;;;;5007056;28;20008;-63
2022/12/31 02:22:34;;;;;;;;;;;10.50;99.90;;;;;;5013843;28;20622;-62
2022/12/31 02:25:07;;;;;;;;;;;10.50;99.90;;;;;;5009003;28;20221;-63
2022/12/31 02:27:40;;;;;;;;;;;10.50;99.90;;;;;;5011807;28;19951;-63
2022/12/31 02:30:06;;;;;;;;;;;10.50;99.90;;;;;;5007975;28;19923;-62
2022/12/31 02:32:41;;;;;;;;;;;10.50;99.90;;;;;;5013452;28;20362;-63
2022/12/31 02:35:12;;;;;;;;;;;10.50;99.90;;;;;;5011300;28;19913;-63
2022/12/31 02:37:38;;;;;;;;;;;10.50;99.90;;;;;;5008770;28;19996;-63
2022/12/31 02:40:05;;;;;;;;;;;10.50;99.90;;;;;;5008525;28;19919;-62
2022/12/31 02:42:31;;;;;;;;;;;10.50;99.90;;;;;;5008584;28;20537;-63
2022/12/31 02:44:56;;;;;;;;;;;10.50;99.90;;;;;;5007128;28;20011;-63
2022/12/31 02:47:45;;;;;;;;;;;10.50;99.90;;;;;;5007833;28;19924;-63
2022/12/31 02:50:37;;;;;;;;;;;10.50;99.90;;;;;;5006199;28;20434;-62
2022/12/31 02:53:19;;;;;;;;;;;10.50;99.90;;;;;;5015182;28;19913;-62
2022/12/31 02:55:51;;;;;;;;;;;10.60;99.90;;;;;;5017794;28;19991;-62
2022/12/31 03:02:12;;;;;;;;;;;10.60;99.90;;;;;;5007156;28;19917;-62
2022/12/31 03:04:30;;;;;;;;;;;10.50;99.90;;;;;;5007261;28;19993;-62
2022/12/31 03:06:47;;;;;;;;;;;10.60;99.90;;;;;;5010246;28;19913;-62
2022/12/31 03:09:12;;;;;;;;;;;10.60;99.90;;;;;;5007497;28;19927;-62
2022/12/31 03:14:22;;;;;;;;;;;10.60;99.90;;;;;;5007214;28;19920;-62
2022/12/31 03:16:48;;;;;;;;;;;10.60;99.90;;;;;;5007056;28;19913;-63
2022/12/31 03:27:25;;;;;;;;;;;10.70;99.90;;;;;;5008021;28;19968;-62
2022/12/31 03:29:51;;;;;;;;;;;10.80;99.90;;;;;;5007936;28;19921;-62
2022/12/31 03:32:16;;;;;;;;;;;10.70;99.90;;;;;;5013878;28;19917;-62
2022/12/31 03:34:42;;;;;;;;;;;10.70;99.90;;;;;;5013766;28;19919;-61
2022/12/31 03:37:07;;;;;;;;;;;10.70;99.90;;;;;;5012038;28;20341;-62
2022/12/31 03:39:32;;;;;;;;;;;10.70;99.90;;;;;;5009826;28;19920;-62
2022/12/31 03:41:58;;;;;;;;;;;10.70;99.90;;;;;;5006799;28;19996;-61
2022/12/31 03:44:23;;;;;;;;;;;10.70;99.90;;;;;;5008618;28;20375;-61
2022/12/31 03:46:49;;;;;;;;;;;10.80;99.90;;;;;;5013075;28;19909;-61
2022/12/31 03:49:14;;;;;;;;;;;10.70;99.90;;;;;;5006655;28;19917;-61
2022/12/31 03:51:40;;;;;;;;;;;10.80;99.90;;;;;;5007449;28;19909;-62
2022/12/31 03:54:05;;;;;;;;;;;10.80;99.90;;;;;;5007645;28;19909;-61
2022/12/31 03:56:30;;;;;;;;;;;10.80;99.90;;;;;;5011491;28;19917;-62
2022/12/31 03:58:56;;;;;;;;;;;10.80;99.90;;;;;;5013393;28;20288;-62
2022/12/31 04:01:23;;;;;;;;;;;10.70;99.90;;;;;;5011055;28;19968;-63
2022/12/31 04:03:48;;;;;;;;;;;10.70;99.90;;;;;;5020299;28;20375;-61
2022/12/31 04:06:14;;;;;;;;;;;10.70;99.90;;;;;;5010661;28;19913;-62
2022/12/31 04:08:39;;;;;;;;;;;10.70;99.90;;;;;;5010280;28;20492;-62
2022/12/31 04:11:04;;;;;;;;;;;10.70;99.90;;;;;;5010999;28;19921;-61
2022/12/31 04:13:30;;;;;;;;;;;10.70;99.90;;;;;;5014875;28;20072;-61
2022/12/31 04:15:55;;;;;;;;;;;10.80;99.90;;;;;;5016594;28;19909;-62
2022/12/31 04:18:21;;;;;;;;;;;10.80;99.90;;;;;;5013531;28;19918;-63
2022/12/31 04:20:46;;;;;;;;;;;10.80;99.90;;;;;;5009906;28;19920;-63
2022/12/31 04:23:11;;;;;;;;;;;10.80;99.90;;;;;;5008602;28;19910;-62
2022/12/31 04:25:37;;;;;;;;;;;10.90;99.90;;;;;;5015550;28;19941;-63
2022/12/31 04:28:02;;;;;;;;;;;10.90;99.90;;;;;;5011908;28;20139;-63
2022/12/31 04:30:28;;;;;;;;;;;11.00;99.90;;;;;;5011463;28;19924;-62
2022/12/31 04:32:53;;;;;;;;;;;11.00;99.90;;;;;;5011600;28;19913;-62
2022/12/31 04:35:19;;;;;;;;;;;11.00;99.90;;;;;;5009910;28;19913;-63
2022/12/31 04:37:44;;;;;;;;;;;11.00;99.90;;;;;;5010900;28;20334;-62
2022/12/31 04:40:10;;;;;;;;;;;11.00;99.90;;;;;;5010712;28;19913;-61
2022/12/31 04:42:35;;;;;;;;;;;11.00;99.90;;;;;;5010108;28;19920;-61
2022/12/31 04:45:01;;;;;;;;;;;11.00;99.90;;;;;;5010612;28;19913;-62
2022/12/31 04:47:26;;;;;;;;;;;11.00;99.90;;;;;;5016456;28;19913;-62
2022/12/31 04:49:52;;;;;;;;;;;11.00;99.90;;;;;;5009240;28;19975;-62
2022/12/31 04:52:17;;;;;;;;;;;11.00;99.90;;;;;;5010368;28;20406;-62
2022/12/31 04:54:42;;;;;;;;;;;11.00;99.90;;;;;;5010598;28;19909;-62
2022/12/31 04:57:08;;;;;;;;;;;11.00;99.90;;;;;;5011442;28;20518;-62
2022/12/31 04:59:33;;;;;;;;;;;11.00;99.90;;;;;;5013093;28;19917;-63
2022/12/31 05:01:59;;;;;;;;;;;11.00;99.90;;;;;;5015606;28;19920;-62
2022/12/31 05:04:24;;;;;;;;;;;11.10;99.90;;;;;;5005083;28;19951;-62
2022/12/31 05:06:49;;;;;;;;;;;11.10;99.90;;;;;;5006573;28;19920;-62
2022/12/31 05:09:15;;;;;;;;;;;11.10;99.90;;;;;;5010382;28;20363;-62
2022/12/31 05:11:40;;;;;;;;;;;11.10;99.90;;;;;;5014315;28;20195;-62
2022/12/31 05:14:06;;;;;;;;;;;11.10;99.90;;;;;;5010049;28;20074;-62
2022/12/31 05:16:31;;;;;;;;;;;11.10;99.90;;;;;;5011419;28;19928;-62
2022/12/31 05:18:57;;;;;;;;;;;11.10;99.90;;;;;;5012509;28;20295;-62
2022/12/31 05:21:22;;;;;;;;;;;11.10;99.90;;;;;;5018118;28;20236;-62
2022/12/31 05:23:48;;;;;;;;;;;11.20;99.90;;;;;;5019023;28;19913;-63
2022/12/31 05:26:13;;;;;;;;;;;11.20;99.90;;;;;;5014008;28;19915;-62
2022/12/31 05:28:39;;;;;;;;;;;11.30;99.90;;;;;;5019186;28;20359;-62
2022/12/31 05:31:04;;;;;;;;;;;11.30;99.90;;;;;;5017106;28;19975;-62
2022/12/31 05:33:30;;;;;;;;;;;11.30;99.90;;;;;;5011082;28;20360;-62
2022/12/31 05:35:57;;;;;;;;;;;11.20;99.90;;;;;;5015231;28;19912;-61
2022/12/31 05:38:23;;;;;;;;;;;11.20;99.90;;;;;;5014468;28;19913;-61
2022/12/31 05:40:48;;;;;;;;;;;11.20;99.90;;;;;;5014670;28;20272;-62
2022/12/31 05:43:14;;;;;;;;;;;11.10;99.90;;;;;;5012357;28;19996;-62
2022/12/31 05:45:39;;;;;;;;;;;11.00;99.90;;;;;;5017774;28;19915;-62
2022/12/31 05:48:05;;;;;;;;;;;11.00;99.90;;;;;;5012560;28;19948;-61
2022/12/31 05:50:30;;;;;;;;;;;10.90;99.90;;;;;;5011708;28;20010;-63
2022/12/31 05:52:56;;;;;;;;;;;10.90;99.90;;;;;;5014204;28;20378;-61
2022/12/31 05:55:21;;;;;;;;;;;10.90;99.90;;;;;;5010153;28;20028;-62
2022/12/31 05:57:47;;;;;;;;;;;10.90;99.90;;;;;;5013620;28;19912;-63
2022/12/31 06:00:13;;;;;;;;;;;11.00;99.90;;;;;;5013040;28;19913;-63
2022/12/31 06:02:38;;;;;;;;;;;11.00;99.90;;;;;;5014675;28;19924;-63
2022/12/31 06:05:04;;;;;;;;;;;11.00;99.90;;;;;;5017929;28;20345;-63
2022/12/31 06:07:29;;;;;;;;;;;11.10;99.90;;;;;;5017931;28;19909;-63
2022/12/31 06:09:54;;;;;;;;;;;11.10;99.90;;;;;;5014183;28;19917;-62
2022/12/31 06:12:20;;;;;;;;;;;11.10;99.90;;;;;;5008344;28;19972;-63
2022/12/31 06:14:45;;;;;;;;;;;11.10;99.90;;;;;;5013703;28;19959;-63
2022/12/31 06:17:11;;;;;;;;;;;11.10;99.90;;;;;;5013083;28;19993;-63
2022/12/31 06:19:36;;;;;;;;;;;11.10;99.90;;;;;;5011147;28;19913;-62
2022/12/31 06:22:02;;;;;;;;;;;11.20;99.90;;;;;;5015818;28;19913;-62
2022/12/31 06:24:27;;;;;;;;;;;11.20;99.90;;;;;;5013103;28;19914;-62
2022/12/31 06:26:52;;;;;;;;;;;11.30;99.90;;;;;;5009191;28;19913;-63
2022/12/31 06:29:18;;;;;;;;;;;11.30;99.90;;;;;;5015526;28;19921;-63
2022/12/31 06:31:43;;;;;;;;;;;11.40;99.90;;;;;;5014378;28;19913;-63
2022/12/31 06:34:09;;;;;;;;;;;11.40;99.90;;;;;;5010922;28;19917;-63
2022/12/31 06:36:34;;;;;;;;;;;11.50;99.90;;;;;;5014995;28;19914;-63
2022/12/31 06:39:00;;;;;;;;;;;11.50;99.90;;;;;;5009431;28;19920;-64
2022/12/31 06:41:25;;;;;;;;;;;11.70;99.90;;;;;;5007958;28;20012;-64
2022/12/31 06:43:51;;;;;;;;;;;11.80;99.90;;;;;;5015283;28;19913;-63
2022/12/31 06:46:17;;;;;;;;;;;11.90;99.90;;;;;;5006494;28;20011;-64
2022/12/31 06:48:43;;;;;;;;;;;12.00;99.90;;;;;;5016610;28;19913;-63
2022/12/31 06:51:10;;;;;;;;;;;12.00;99.90;;;;;;5016600;28;19921;-63
2022/12/31 06:53:36;;;;;;;;;;;12.10;99.90;;;;;;5012560;28;19959;-64
2022/12/31 06:56:11;;;;;;;;;;;12.10;99.90;;;;;;5015773;28;20279;-64
2022/12/31 06:58:36;;;;;;;;;;;12.10;99.90;;;;;;5010713;28;19913;-63
2022/12/31 07:01:26;;;;;;;;;;;12.10;99.90;;;;;;5012150;28;19920;-63
2022/12/31 07:03:52;;;;;;;;;;;12.20;99.90;;;;;;5008014;28;19999;-65
2022/12/31 07:06:26;;;;;;;;;;;12.30;99.90;;;;;;5014243;28;20039;-65
2022/12/31 07:08:54;;;;;;;;;;;12.30;99.90;;;;;;5012035;28;19909;-64
2022/12/31 07:11:22;;;;;;;;;;;12.40;99.90;;;;;;5012531;28;20358;-63
2022/12/31 07:13:53;;;;;;;;;;;12.50;99.90;;;;;;5014451;28;19919;-64
2022/12/31 07:16:18;;;;;;;;;;;12.50;99.90;;;;;;5015975;28;20497;-64
2022/12/31 07:18:53;;;;;;;;;;;12.50;99.90;;;;;;5012187;28;20364;-64
2022/12/31 07:21:23;;;;;;;;;;;12.50;99.90;;;;;;5015010;28;19928;-64
2022/12/31 07:23:49;;;;;;;;;;;12.60;99.90;;;;;;5013079;28;20273;-64
2022/12/31 07:26:14;;;;;;;;;;;12.70;99.90;;;;;;5016601;28;19913;-68
2022/12/31 07:28:58;;;;;;;;;;;12.70;99.90;;;;;;5015443;28;20000;-66
2022/12/31 07:31:36;;;;;;;;;;;12.80;99.90;;;;;;5016047;28;20396;-63
2022/12/31 07:34:09;;;;;;;;;;;12.80;99.90;;;;;;5013648;28;19913;-64
2022/12/31 07:36:43;;;;;;;;;;;12.80;99.90;;;;;;5013832;28;19920;-65
2022/12/31 07:39:11;;;;;;;;;;;12.90;99.90;;;;;;5015908;28;19982;-64
2022/12/31 07:41:42;;;;;;;;;;;13.00;99.90;;;;;;5016202;28;19913;-66
2022/12/31 07:44:20;;;;;;;;;;;13.10;99.90;;;;;;5012044;28;20096;-63
2022/12/31 07:46:55;;;;;;;;;;;13.20;99.90;;;;;;5012758;28;19935;-65
2022/12/31 07:49:21;;;;;;;;;;;13.20;99.90;;;;;;5015855;28;20027;-63
2022/12/31 07:51:47;;;;;;;;;;;13.30;99.90;;;;;;5016056;28;20203;-65
2022/12/31 07:54:12;;;;;;;;;;;13.40;99.90;;;;;;5016015;28;20008;-63
2022/12/31 07:56:38;;;;;;;;;;;13.50;99.90;;;;;;5016289;28;20364;-64
2022/12/31 07:59:03;;;;;;;;;;;13.60;99.90;;;;;;5013433;28;20425;-64
2022/12/31 08:01:36;;;;;;;;;;;13.70;99.90;;;;;;5016513;28;19931;-64
2022/12/31 08:04:20;;;;;;;;;;;13.70;99.90;;;;;;5011917;28;19916;-64
2022/12/31 08:06:59;;;;;;;;;;;13.80;99.90;;;;;;5007976;28;19913;-64
2022/12/31 08:09:38;;;;;;;;;;;13.80;99.90;;;;;;5014118;28;20427;-64
2022/12/31 08:12:03;;;;;;;;;;;13.90;99.90;;;;;;5015936;28;19988;-63
2022/12/31 08:14:29;;;;;;;;;;;13.90;99.90;;;;;;5015423;28;20515;-64
2022/12/31 08:16:56;;;;;;;;;;;14.00;99.90;;;;;;5009050;28;19912;-64
2022/12/31 08:19:23;;;;;;;;;;;14.00;99.90;;;;;;5009672;28;20303;-64
2022/12/31 08:22:01;;;;;;;;;;;14.10;99.90;;;;;;5015529;28;19916;-64
2022/12/31 08:24:38;;;;;;;;;;;14.10;99.90;;;;;;5015918;28;19913;-64
2022/12/31 08:27:23;;;;;;;;;;;14.20;99.90;;;;;;5015871;28;19909;-64
2022/12/31 08:30:06;;;;;;;;;;;14.30;99.90;;;;;;5014748;28;19920;-66
2022/12/31 08:32:34;;;;;;;;;;;14.30;99.90;;;;;;5015289;28;19913;-66
2022/12/31 08:35:04;;;;;;;;;;;14.30;99.90;;;;;;5006256;28;19917;-65
2022/12/31 08:37:35;;;;;;;;;;;14.40;99.90;;;;;;5006456;28;19920;-66
2022/12/31 08:40:20;;;;;;;;;;;14.40;99.90;;;;;;5006996;28;19917;-67
2022/12/31 08:43:05;;;;;;;;;;;14.40;99.90;;;;;;5010119;28;20291;-66
2022/12/31 08:45:36;;;;;;;;;;;14.50;99.90;;;;;;5003955;28;19920;-65
2022/12/31 08:48:05;;;;;;;;;;;14.60;99.90;;;;;;5006464;28;19995;-66
2022/12/31 08:50:30;;;;;;;;;;;14.60;99.90;;;;;;5006812;28;20004;-66
2022/12/31 08:52:56;;;;;;;;;;;14.60;99.90;;;;;;5011669;28;20339;-66
2022/12/31 08:55:22;;;;;;;;;;;14.70;99.90;;;;;;5025662;28;20622;-69
2022/12/31 08:57:50;;;;;;;;;;;14.70;99.90;;;;;;5010415;28;19923;-63
2022/12/31 09:00:17;;;;;;;;;;;14.80;99.90;;;;;;5013741;28;19917;-64
2022/12/31 09:02:45;;;;;;;;;;;14.80;99.90;;;;;;5015853;28;20301;-63
2022/12/31 09:05:16;;;;;;;;;;;14.80;99.90;;;;;;5016029;28;20346;-64
2022/12/31 09:08:05;;;;;;;;;;;14.80;99.90;;;;;;5017121;28;19991;-67
2022/12/31 09:10:38;;;;;;;;;;;14.80;99.90;;;;;;4997624;28;19916;-64
2022/12/31 09:13:22;;;;;;;;;;;14.90;99.90;;;;;;5018097;28;19920;-65
2022/12/31 09:15:47;;;;;;;;;;;14.90;99.90;;;;;;5016204;28;19920;-65
2022/12/31 09:18:13;;;;;;;;;;;15.00;99.90;;;;;;5018089;28;20559;-63
2022/12/31 09:20:39;;;;;;;;;;;15.10;99.90;;;;;;5016073;28;20198;-63
2022/12/31 09:23:05;;;;;;;;;;;15.10;99.90;;;;;;5013844;28;19909;-65
2022/12/31 09:25:30;;;;;;;;;;;15.10;99.90;;;;;;5010343;28;19924;-63
2022/12/31 09:28:14;;;;;;;;;;;15.10;99.90;;;;;;5012017;28;20529;-63
2022/12/31 09:30:58;;;;;;;;;;;15.20;99.90;;;;;;5012403;28;19989;-64
2022/12/31 09:33:45;;;;;;;;;;;15.20;99.90;;;;;;5010362;28;20018;-63
2022/12/31 09:36:15;;;;;;;;;;;15.40;99.90;;;;;;5012576;28;19944;-64
2022/12/31 09:38:51;;;;;;;;;;;15.50;99.90;;;;;;5012562;28;19917;-64
2022/12/31 09:41:34;;;;;;;;;;;15.50;99.90;;;;;;5010046;28;19913;-64
2022/12/31 09:44:18;;;;;;;;;;;15.50;99.90;;;;;;5013088;28;19909;-63
2022/12/31 09:47:04;;;;;;;;;;;15.50;99.90;;;;;;5015916;28;20351;-65
2022/12/31 09:49:35;;;;;;;;;;;15.50;99.90;;;;;;5017635;28;19948;-71
2022/12/31 09:52:19;;;;;;;;;;;15.50;99.90;;;;;;5015759;28;19923;-68
2022/12/31 09:54:50;;;;;;;;;;;15.60;99.90;;;;;;5016849;28;19917;-70
2022/12/31 09:57:23;;;;;;;;;;;15.70;99.90;;;;;;5014889;28;19913;-72
2022/12/31 10:00:11;;;;;;;;;;;15.80;99.90;;;;;;5017592;28;19920;-70
2022/12/31 10:02:49;;;;;;;;;;;15.90;99.90;;;;;;5015576;28;19916;-70
2022/12/31 10:05:30;;;;;;;;;;;16.00;99.90;;;;;;5014143;28;19920;-70
2022/12/31 10:08:09;;;;;;;;;;;16.10;99.90;;;;;;5013079;28;19909;-82
2022/12/31 10:10:45;;;;;;;;;;;16.20;99.90;;;;;;5018297;28;20686;-60
2022/12/31 10:13:21;;;;;;;;;;;16.20;99.90;;;;;;5015090;28;19909;-62
2022/12/31 10:16:01;;;;;;;;;;;16.20;99.90;;;;;;5017295;28;19998;-61
2022/12/31 10:18:35;;;;;;;;;;;16.20;99.90;;;;;;5015477;28;19909;-66
2022/12/31 10:21:19;;;;;;;;;;;16.30;99.90;;;;;;5016957;28;20008;-62
2022/12/31 10:24:03;;;;;;;;;;;16.20;99.90;;;;;;5017220;28;19990;-62
2022/12/31 10:26:49;;;;;;;;;;;16.10;99.90;;;;;;5014758;28;20324;-61
2022/12/31 10:29:24;;;;;;;;;;;16.00;99.90;;;;;;5019989;28;19923;-62
2022/12/31 10:31:52;;;;;;;;;;;16.00;99.90;;;;;;5013038;28;19917;-62
2022/12/31 10:34:20;;;;;;;;;;;16.00;99.90;;;;;;5014559;28;19909;-64
2022/12/31 10:36:53;;;;;;;;;;;16.00;99.90;;;;;;5016824;28;19920;-63
2022/12/31 10:39:30;;;;;;;;;;;15.80;99.90;;;;;;5014347;28;20031;-63
2022/12/31 10:42:20;;;;;;;;;;;15.70;99.90;;;;;;5013870;28;19913;-64
2022/12/31 10:44:45;;;;;;;;;;;15.40;99.90;;;;;;5015699;28;20003;-63
2022/12/31 10:47:21;;;;;;;;;;;15.20;99.90;;;;;;5016472;28;20047;-63
2022/12/31 10:49:49;;;;;;;;;;;15.10;99.90;;;;;;5017005;28;20382;-62
2022/12/31 10:52:39;;;;;;;;;;;15.20;99.90;;;;;;5014275;28;19916;-63
2022/12/31 10:55:24;;;;;;;;;;;15.10;99.90;;;;;;5014156;28;20397;-65
2022/12/31 10:58:13;;;;;;;;;;;15.00;99.90;;;;;;5010273;28;20011;-63
2022/12/31 11:00:49;;;;;;;;;;;15.00;99.90;;;;;;5016566;28;20267;-63
2022/12/31 11:03:27;;;;;;;;;;;15.10;99.90;;;;;;5012414;28;19992;-66
2022/12/31 11:05:55;;;;;;;;;;;15.10;99.90;;;;;;5017865;28;19909;-77
2022/12/31 11:08:48;;;;;;;;;;;15.10;99.90;;;;;;5009356;28;19920;-76
2022/12/31 11:11:40;;;;;;;;;;;15.20;99.90;;;;;;5013194;28;19959;-75
2022/12/31 11:14:24;;;;;;;;;;;15.20;99.90;;;;;;5005721;28;20277;-75
2022/12/31 11:17:00;;;;;;;;;;;15.20;99.90;;;;;;5006603;28;19944;-75
2022/12/31 11:19:44;;;;;;;;;;;15.20;99.90;;;;;;5006032;28;19920;-76
2022/12/31 11:22:21;;;;;;;;;;;15.20;99.90;;;;;;5009748;28;19913;-75
2022/12/31 11:25:19;;;;;;;;;;;15.20;99.90;;;;;;5012832;28;20356;-76
2022/12/31 11:28:03;;;;;;;;;;;15.20;99.90;;;;;;5015002;28;20380;-76
2022/12/31 11:30:28;;;;;;;;;;;15.20;99.90;;;;;;5008041;28;19913;-76
2022/12/31 11:32:53;;;;;;;;;;;15.20;99.90;;;;;;5007702;28;20803;-74
2022/12/31 11:35:37;;;;;;;;;;;15.20;99.90;;;;;;5012242;28;19986;-76
2022/12/31 11:38:21;;;;;;;;;;;15.20;99.90;;;;;;5013109;28;19916;-76
2022/12/31 11:40:52;;;;;;;;;;;15.30;99.90;;;;;;5011383;28;19947;-75
2022/12/31 11:43:37;;;;;;;;;;;15.40;99.90;;;;;;5011623;28;20375;-75
2022/12/31 11:46:14;;;;;;;;;;;15.50;99.90;;;;;;5010312;28;19913;-76
2022/12/31 11:48:40;;;;;;;;;;;15.60;99.90;;;;;;5020685;28;19919;-76
2022/12/31 11:51:25;;;;;;;;;;;15.80;99.90;;;;;;5018202;28;19919;-74
2022/12/31 11:54:13;;;;;;;;;;;16.00;99.90;;;;;;5013363;28;19913;-75
2022/12/31 11:56:39;;;;;;;;;;;16.20;99.90;;;;;;5010883;28;19913;-76
2022/12/31 11:59:09;;;;;;;;;;;16.30;99.90;;;;;;5005826;28;20269;-75
2022/12/31 12:01:39;;;;;;;;;;;16.30;99.90;;;;;;5024162;28;20014;-75
2022/12/31 12:04:04;;;;;;;;;;;16.40;99.90;;;;;;5010882;28;19909;-75
2022/12/31 12:06:31;;;;;;;;;;;16.30;99.90;;;;;;5011402;28;20351;-75
2022/12/31 12:09:01;;;;;;;;;;;16.30;99.90;;;;;;5011329;28;19913;-75
2022/12/31 12:11:29;;;;;;;;;;;16.40;99.90;;;;;;5006338;28;20368;-76
2022/12/31 12:13:55;;;;;;;;;;;16.40;99.90;;;;;;5018150;28;19909;-74
2022/12/31 12:16:21;;;;;;;;;;;16.60;99.90;;;;;;5025091;28;19952;-76
2022/12/31 12:18:48;;;;;;;;;;;16.70;99.90;;;;;;5009065;28;20248;-75
2022/12/31 12:21:16;;;;;;;;;;;16.70;99.90;;;;;;5014709;28;19909;-76
2022/12/31 12:23:52;;;;;;;;;;;16.80;99.90;;;;;;5009853;28;20447;-76
2022/12/31 12:26:47;;;;;;;;;;;16.80;99.90;;;;;;5015936;28;19912;-76
2022/12/31 12:29:19;;;;;;;;;;;16.80;99.90;;;;;;5008611;28;19913;-75
2022/12/31 12:31:55;;;;;;;;;;;16.80;99.90;;;;;;5014563;28;20439;-74
2022/12/31 12:34:24;;;;;;;;;;;16.80;99.90;;;;;;5023432;28;20008;-76
2022/12/31 12:36:50;;;;;;;;;;;16.90;99.90;;;;;;5017022;28;19940;-76
2022/12/31 12:39:21;;;;;;;;;;;16.90;99.90;;;;;;5012105;28;19909;-75
2022/12/31 12:41:47;;;;;;;;;;;16.90;99.90;;;;;;5010436;28;19913;-76
2022/12/31 12:44:15;;;;;;;;;;;17.00;99.90;;;;;;5011968;28;19913;-75
2022/12/31 12:46:45;;;;;;;;;;;17.00;99.90;;;;;;5011769;28;19920;-77
2022/12/31 12:49:20;;;;;;;;;;;17.00;99.90;;;;;;5018385;28;19909;-77
2022/12/31 12:51:55;;;;;;;;;;;17.00;99.90;;;;;;5015176;28;19917;-76
2022/12/31 12:54:41;;;;;;;;;;;17.00;99.90;;;;;;5010280;28;20495;-78
2022/12/31 12:57:17;;;;;;;;;;;17.10;99.90;;;;;;5015002;28;19964;-75
2022/12/31 13:00:02;;;;;;;;;;;17.10;99.90;;;;;;5020773;28;19924;-84
2022/12/31 13:02:54;;;;;;;;;;;17.10;99.90;;;;;;5015583;28;20214;-72
2022/12/31 13:05:40;;;;;;;;;;;17.20;99.90;;;;;;5014705;28;20182;-72
2022/12/31 13:08:14;;;;;;;;;;;17.20;99.90;;;;;;5009797;28;20395;-70
2022/12/31 13:10:50;;;;;;;;;;;17.20;99.90;;;;;;5012349;28;20685;-79
2022/12/31 13:13:34;;;;;;;;;;;17.20;99.90;;;;;;5014182;28;20286;-78
2022/12/31 13:16:12;;;;;;;;;;;17.20;99.90;;;;;;5020245;28;19913;-84
2022/12/31 13:18:47;;;;;;;;;;;17.20;99.90;;;;;;5014490;28;20445;-76
2022/12/31 13:21:12;;;;;;;;;;;17.20;99.90;;;;;;5016380;28;19955;-81
2022/12/31 13:23:41;;;;;;;;;;;17.30;99.90;;;;;;5013081;28;20642;-74
2022/12/31 13:26:15;;;;;;;;;;;17.30;99.90;;;;;;5015004;28;19920;-81
2022/12/31 13:28:42;;;;;;;;;;;17.30;99.90;;;;;;5014964;28;20227;-75
2022/12/31 13:31:16;;;;;;;;;;;17.30;99.90;;;;;;5014575;28;20394;-75
2022/12/31 13:33:43;;;;;;;;;;;17.30;99.90;;;;;;5016232;28;19909;-74
2022/12/31 13:36:18;;;;;;;;;;;17.30;99.90;;;;;;5014908;28;20365;-75
2022/12/31 13:38:51;;;;;;;;;;;17.30;99.90;;;;;;5015025;28;20660;-76
2022/12/31 13:41:23;;;;;;;;;;;17.30;99.90;;;;;;5013286;28;20368;-76
2022/12/31 13:43:52;;;;;;;;;;;17.30;99.90;;;;;;5011954;28;19913;-76
2022/12/31 13:46:26;;;;;;;;;;;17.40;99.90;;;;;;5013230;28;19909;-76
2022/12/31 13:48:53;;;;;;;;;;;17.40;99.90;;;;;;5010663;28;19909;-76
2022/12/31 13:51:23;;;;;;;;;;;17.30;99.90;;;;;;5012604;28;20020;-76
2022/12/31 13:53:57;;;;;;;;;;;17.30;99.90;;;;;;5016220;28;19913;-74
2022/12/31 13:56:24;;;;;;;;;;;17.30;99.90;;;;;;5016062;28;20348;-79
2022/12/31 13:58:59;;;;;;;;;;;17.30;99.90;;;;;;5019045;28;20252;-80
2022/12/31 14:01:49;;;;;;;;;;;17.30;99.90;;;;;;5015578;28;19954;-78
2022/12/31 14:04:22;;;;;;;;;;;17.30;99.90;;;;;;5009488;28;19952;-78
2022/12/31 14:06:52;;;;;;;;;;;17.20;99.90;;;;;;5013413;28;19916;-73
2022/12/31 14:09:27;;;;;;;;;;;17.20;99.90;;;;;;5012955;28;19993;-76
2022/12/31 14:12:28;;;;;;;;;;;17.30;99.90;;;;;;5013208;28;19920;-77
2022/12/31 14:15:06;;;;;;;;;;;17.30;99.90;;;;;;5005870;28;19929;-80
2022/12/31 14:17:46;;;;;;;;;;;17.20;99.90;;;;;;5010761;28;19920;-80
2022/12/31 14:20:20;;;;;;;;;;;17.20;99.90;;;;;;5011858;28;19970;-80
2022/12/31 14:22:50;;;;;;;;;;;17.10;99.90;;;;;;5011414;28;19918;-77
2022/12/31 14:25:18;;;;;;;;;;;17.10;99.90;;;;;;5023229;28;19913;-78
2022/12/31 14:27:46;;;;;;;;;;;17.10;99.90;;;;;;5014969;28;19988;-80
2022/12/31 14:30:22;;;;;;;;;;;17.10;99.90;;;;;;5013090;28;19917;-81
2022/12/31 14:33:06;;;;;;;;;;;17.10;99.90;;;;;;5019327;28;19912;-78
2022/12/31 14:35:49;;;;;;;;;;;17.00;99.90;;;;;;5016493;28;19913;-77
2022/12/31 14:38:33;;;;;;;;;;;17.00;99.90;;;;;;5022041;28;20314;-76
2022/12/31 14:41:12;;;;;;;;;;;17.00;99.90;;;;;;5016554;28;19913;-81
2022/12/31 14:43:50;;;;;;;;;;;17.00;99.90;;;;;;5015689;28;20382;-73
2022/12/31 14:46:24;;;;;;;;;;;17.10;99.90;;;;;;5018617;28;19939;-74
2022/12/31 14:49:08;;;;;;;;;;;17.00;99.90;;;;;;5010115;28;19909;-73
2022/12/31 14:51:34;;;;;;;;;;;17.00;99.90;;;;;;5013886;28;19913;-72
2022/12/31 14:54:00;;;;;;;;;;;17.00;99.90;;;;;;5010577;28;19999;-72
2022/12/31 14:56:30;;;;;;;;;;;16.90;99.90;;;;;;5007429;28;20000;-72